MUVR

Details ICAO MUVR (VRA)
Name JUAN GUALBERTO GOMEZ INTL
Region Cuba
Timezone America/Havana (UTC-4.0)
Plans Departing 90
Arriving 160
Stats Elevation 209 ft / 64 m (AMSL)
Location 23.034439° -81.435269°
Runways 1
Magnetic Variation 5.567° W
Sunrise 2018-05-21 10:43:50 UTC / 2018-05-21 06:43:50 Local
Sunset 2018-05-22 00:03:43 UTC / 2018-05-21 20:03:43 Local
Advertisement - Login to hide

Runways

ID Width Length Bearing (true) Bearing (mag) Surface Threshold Offset Overrun Length
06 148 ft / 45 m 11,494 ft / 3,503 m 55.47° 61.04° Asphalt 0 ft / 0 m 197 ft / 60 m
24 148 ft / 45 m 11,494 ft / 3,503 m 235.48° 241.05° Asphalt 0 ft / 0 m 197 ft / 60 m

Approach Navaids

Runway Type Ident Frequency Range Bearing (true) Bearing (mag) Slope Elevation
06 Localiser IVR 111.30 MHz 18 nm / 33 km 55.49° 61.06° - 209 ft / 64 m (AMSL)
06 Glidescope IVR 111.30 MHz 10 nm / 19 km 55.47° 61.04° 3.00° 209 ft / 64 m (AMSL)

Map

Weather


0- 5 10 15 20 25 30 35+ Temperature / ° C

Clouds and Precipitation
Forecast for 2018-05-22 00:00 UTC. Updated 5 hours ago

Ground ~20,000 ft ~40,000 ft Winds

METAR

MUVR 220350Z 14006KT 8000 FEW020 BKN080 22/21 Q1016

TAF

TAF MUVR 211700Z 2118/2218 13009KT 9000 SCT020 TEMPO 2118/2124 5000 TSRA RA SCT018CB BKN040

Frequencies

Tower 126.90 MHz VARADERO RDO
Approach 119.60 MHz VARADERO APP
Tower 118.40 MHz VARADERO TWR
Warning: Do not use this data for real-world aviation or navigation. No guarantee of current accuracy is given.